createdAt,value
2019-01-19T10:58:37.880Z,31.90
2019-01-19T11:01:08.979Z,25.83
2019-01-19T11:04:01.782Z,30.57
2019-01-19T11:06:31.870Z,23.50
2019-01-19T11:09:01.896Z,29.83
2019-01-19T11:11:33.517Z,29.40
2019-01-19T11:21:29.585Z,25.57
2019-01-19T11:24:01.133Z,24.80
2019-01-19T11:26:31.219Z,27.82
2019-01-19T11:29:01.206Z,28.87
2019-01-19T11:31:31.202Z,25.73
2019-01-19T11:34:02.840Z,25.90
2019-01-19T11:36:40.669Z,52.43
2019-01-19T11:39:48.001Z,37.50
2019-01-19T11:45:26.109Z,29.93
2019-01-19T11:47:56.263Z,27.17
2019-01-19T11:50:26.384Z,26.97
2019-01-19T11:52:56.587Z,29.80
2019-01-19T11:55:26.809Z,39.23
2019-01-19T12:13:18.795Z,36.10
2019-01-19T12:15:48.773Z,27.50
2019-01-19T12:18:18.760Z,31.77
2019-01-19T12:20:48.983Z,27.73
2019-01-19T12:23:19.052Z,27.93
2019-01-19T12:25:48.964Z,21.47
2019-01-19T12:28:18.943Z,25.83
2019-01-19T12:30:48.971Z,23.63
2019-01-19T12:33:19.047Z,21.53
2019-01-19T12:35:49.044Z,18.27
2019-01-19T12:38:18.955Z,20.53
2019-01-19T12:40:48.935Z,20.27
2019-01-19T12:43:18.843Z,22.50
2019-01-19T12:45:51.614Z,20.53
2019-01-19T12:48:21.775Z,23.90
2019-01-19T12:50:51.822Z,19.83
2019-01-19T12:53:21.841Z,21.83
2019-01-19T12:55:51.824Z,19.73
2019-01-19T12:58:22.031Z,20.10
2019-01-19T13:00:52.118Z,21.83
2019-01-19T13:03:22.039Z,24.50
2019-01-19T13:06:06.262Z,23.60
2019-01-19T13:08:36.178Z,19.83
2019-01-19T13:11:11.662Z,21.23
2019-01-19T13:13:44.380Z,21.97
2019-01-19T13:16:36.774Z,24.27
2019-01-19T13:19:24.693Z,25.23
2019-01-19T13:22:40.260Z,20.70
2019-01-19T13:25:18.860Z,26.50
2019-01-19T13:28:11.450Z,27.90
2019-01-19T13:31:19.398Z,26.43
2019-01-19T13:33:57.960Z,27.40
2019-01-19T13:36:30.876Z,27.13
2019-01-19T13:39:12.638Z,28.77
2019-01-19T13:42:01.950Z,29.57
2019-01-19T13:44:34.946Z,24.17
2019-01-19T13:47:24.341Z,26.47
2019-01-19T13:50:15.257Z,29.37
2019-01-19T13:53:28.256Z,23.07
2019-01-19T13:56:23.542Z,21.23
2019-01-19T13:59:19.819Z,24.87
2019-01-19T14:02:25.637Z,27.70
2019-01-19T14:05:04.097Z,25.23
2019-01-19T14:07:42.787Z,27.20
2019-01-19T14:10:21.379Z,30.17
2019-01-19T14:13:10.651Z,25.10
2019-01-19T14:15:46.170Z,25.13
2019-01-19T14:18:36.888Z,25.90
2019-01-19T14:21:12.998Z,26.87
2019-01-19T14:23:49.092Z,25.83
2019-01-19T14:26:47.114Z,29.23
2019-01-19T14:29:37.970Z,27.70
2019-01-19T14:32:16.675Z,27.50
2019-01-19T14:35:07.591Z,28.23
2019-01-19T14:37:52.516Z,30.93
2019-01-19T14:40:40.312Z,33.60
2019-01-19T14:43:30.959Z,32.80
2019-01-19T14:46:09.568Z,31.50
2019-01-19T14:49:00.522Z,34.10
2019-01-19T14:51:42.043Z,35.33
2019-01-19T14:54:37.457Z,32.80
2019-01-19T14:57:22.377Z,34.47
2019-01-19T15:00:07.030Z,41.33
2019-01-19T15:03:02.627Z,35.00
2019-01-19T15:05:38.694Z,38.57
2019-01-19T15:08:33.374Z,37.87
2019-01-19T15:11:25.919Z,37.83
2019-01-19T15:14:05.699Z,33.43
2019-01-19T15:16:44.442Z,34.97
2019-01-19T15:19:35.152Z,35.40
2019-01-19T15:22:19.339Z,41.43
2019-01-19T15:24:52.259Z,47.23
2019-01-19T15:27:41.294Z,37.37
2019-01-19T15:30:39.084Z,38.17
2019-01-19T15:33:20.966Z,38.53
2019-01-19T15:35:59.404Z,34.50
2019-01-19T15:38:38.183Z,40.53
2019-01-19T15:41:25.223Z,35.97
2019-01-19T15:44:15.651Z,37.77
2019-01-19T15:47:15.374Z,40.43
2019-01-19T15:49:57.208Z,39.27
2019-01-19T15:52:30.134Z,33.37
2019-01-19T15:55:21.242Z,32.20
2019-01-19T15:58:18.510Z,36.27
2019-01-19T16:01:21.021Z,39.10
2019-01-19T16:04:18.126Z,41.33
2019-01-19T16:06:51.751Z,37.47
2019-01-19T16:09:55.087Z,37.23
2019-01-19T16:12:33.935Z,34.30
2019-01-19T16:15:24.721Z,34.23
2019-01-19T16:18:06.471Z,46.73
2019-01-19T16:21:02.925Z,40.53
2019-01-19T16:23:44.813Z,41.13
2019-01-19T16:26:35.826Z,40.40
2019-01-19T16:29:20.770Z,38.30
2019-01-19T16:35:14.304Z,43.93
2019-01-19T16:37:53.102Z,41.00
2019-01-19T16:40:48.395Z,42.07
2019-01-19T16:43:49.514Z,44.27
2019-01-19T16:46:44.919Z,39.43
2019-01-19T16:49:37.309Z,40.67
2019-01-19T16:52:10.247Z,46.03
2019-01-19T16:54:43.356Z,48.07
2019-01-19T16:57:31.610Z,42.00
2019-01-19T17:00:24.152Z,45.03
2019-01-19T17:03:19.731Z,47.70
2019-01-19T17:05:58.566Z,47.10
2019-01-19T17:08:52.997Z,54.87
2019-01-19T17:11:40.898Z,52.90
2019-01-19T17:14:22.771Z,53.07
2019-01-19T17:16:55.687Z,45.73
2019-01-19T17:19:50.928Z,45.57
2019-01-19T17:22:26.524Z,45.13
2019-01-19T17:25:33.483Z,51.77
2019-01-19T17:28:08.797Z,45.43
2019-01-19T17:30:44.879Z,42.27
2019-01-19T17:33:18.631Z,41.37
2019-01-19T17:36:10.048Z,43.47
2019-01-19T17:39:10.675Z,41.37
2019-01-19T17:41:48.011Z,48.60
2019-01-19T17:44:26.951Z,46.47
2019-01-19T17:47:16.729Z,48.30
2019-01-19T17:49:55.403Z,40.87
2019-01-19T17:52:43.244Z,45.40
2019-01-19T17:55:19.230Z,50.53
2019-01-19T17:58:07.063Z,50.97
2019-01-19T18:00:59.162Z,57.57
2019-01-19T18:03:52.891Z,52.20
2019-01-19T18:06:56.847Z,43.20
2019-01-19T18:09:38.319Z,53.60
2019-01-19T18:12:14.059Z,58.80
2019-01-19T18:14:52.637Z,68.30
2019-01-19T18:17:43.331Z,78.67
2019-01-19T18:20:41.795Z,99.33
2019-01-19T18:23:42.470Z,94.63
2019-01-19T18:26:33.612Z,78.73
2019-01-19T18:29:41.831Z,118.23
2019-01-19T18:32:38.583Z,102.20
2019-01-19T18:35:11.545Z,59.50
2019-01-19T18:37:53.075Z,49.93
2019-01-19T18:40:47.058Z,57.20
2019-01-19T18:43:40.681Z,54.50
2019-01-19T18:46:19.308Z,48.70
2019-01-19T18:49:10.040Z,44.23
2019-01-19T18:52:00.738Z,40.07
2019-01-19T18:54:59.162Z,52.70
2019-01-19T18:57:56.002Z,44.93
2019-01-19T19:00:43.837Z,47.10
2019-01-19T19:03:34.826Z,39.27
2019-01-19T19:06:31.967Z,47.63
2019-01-19T19:09:24.305Z,45.70
2019-01-19T19:12:02.959Z,41.27
2019-01-19T19:14:41.751Z,49.83
2019-01-19T19:17:32.890Z,47.77
2019-01-19T19:20:20.351Z,53.57
2019-01-19T19:22:55.771Z,46.00
2019-01-19T19:26:02.639Z,50.10
2019-01-19T19:28:38.307Z,43.07
2019-01-19T19:31:11.219Z,58.73
2019-01-19T19:36:49.223Z,53.20
2019-01-19T19:39:39.964Z,50.17
2019-01-19T19:42:32.503Z,59.93
2019-01-19T19:45:14.468Z,64.60
2019-01-19T19:48:20.630Z,61.73
2019-01-19T19:51:02.680Z,56.93
2019-01-19T19:53:34.405Z,62.47
2019-01-19T19:56:03.283Z,51.73
2019-01-19T19:58:33.240Z,54.53
2019-01-19T20:01:03.451Z,51.43
2019-01-19T20:03:33.498Z,55.60
2019-01-19T20:06:03.593Z,51.13
2019-01-19T20:08:34.815Z,51.70
2019-01-19T20:11:05.029Z,60.90
2019-01-19T20:13:35.228Z,61.23
2019-01-19T20:16:05.369Z,57.33
2019-01-19T20:18:35.393Z,48.63
2019-01-19T20:21:05.391Z,50.57
2019-01-19T20:23:35.402Z,58.53
2019-01-19T20:26:05.558Z,56.30
2019-01-19T20:28:35.567Z,56.03
2019-01-19T20:31:05.611Z,50.57
2019-01-19T20:33:36.919Z,51.87
2019-01-19T20:36:07.028Z,54.10
2019-01-19T20:38:36.957Z,52.23
2019-01-19T20:41:06.976Z,56.87
2019-01-19T20:43:37.006Z,54.27
2019-01-19T20:46:07.237Z,53.97
2019-01-19T20:48:37.664Z,58.67
2019-01-19T20:51:07.704Z,60.43
2019-01-19T20:53:37.805Z,53.00
2019-01-19T20:56:08.008Z,59.47
2019-01-19T20:58:38.238Z,52.93
2019-01-19T21:01:08.240Z,54.27
2019-01-19T21:03:38.273Z,52.43
2019-01-19T21:06:08.372Z,55.07
2019-01-19T21:08:38.371Z,48.03
2019-01-19T21:11:08.306Z,52.53
2019-01-19T21:13:38.344Z,60.97
2019-01-19T21:16:08.599Z,54.93
2019-01-19T21:18:38.607Z,50.50
2019-01-19T21:21:08.538Z,58.70
2019-01-19T21:23:38.647Z,59.27
2019-01-19T21:26:08.848Z,64.47
2019-01-19T21:28:38.944Z,60.73
2019-01-19T21:31:08.879Z,55.47
2019-01-19T21:33:38.892Z,53.23
2019-01-19T21:36:09.031Z,48.53
2019-01-19T21:38:39.034Z,56.03
2019-01-19T21:41:09.137Z,61.30
2019-01-19T21:43:39.155Z,49.27
2019-01-19T21:46:09.183Z,49.40
2019-01-19T21:48:39.182Z,50.20
2019-01-19T21:51:09.132Z,52.80
2019-01-19T21:53:39.240Z,58.00
2019-01-19T21:56:09.271Z,54.90
2019-01-19T21:58:39.287Z,54.80
2019-01-19T22:01:09.327Z,110.77
2019-01-19T22:03:39.359Z,78.93
2019-01-19T22:06:09.919Z,93.00
2019-01-19T22:08:40.023Z,104.37
2019-01-19T22:11:41.632Z,81.40
2019-01-19T22:14:11.678Z,81.23
2019-01-19T22:16:41.701Z,53.63
2019-01-19T22:19:11.859Z,54.60
2019-01-19T22:21:41.963Z,50.30
2019-01-19T22:24:11.971Z,58.10
2019-01-19T22:26:43.373Z,54.50
2019-01-19T22:29:13.395Z,55.43
2019-01-19T22:31:43.543Z,63.30
2019-01-19T22:34:13.639Z,55.13
2019-01-19T22:36:43.577Z,48.27
2019-01-19T22:39:13.579Z,48.10
2019-01-19T22:41:43.522Z,53.70
2019-01-19T22:44:13.626Z,51.10
2019-01-19T22:46:43.644Z,49.83
2019-01-19T22:49:13.743Z,47.27
2019-01-19T22:51:43.877Z,51.27
2019-01-19T22:54:13.874Z,48.53
2019-01-19T22:56:43.810Z,51.17
2019-01-19T22:59:13.838Z,49.43
2019-01-19T23:01:45.038Z,51.23
2019-01-19T23:04:15.133Z,49.77
2019-01-19T23:06:45.269Z,48.90
2019-01-19T23:09:16.323Z,47.97
2019-01-19T23:11:46.255Z,44.57
2019-01-19T23:14:16.360Z,45.83
2019-01-19T23:16:46.394Z,51.33
2019-01-19T23:19:16.483Z,59.77
2019-01-19T23:21:46.563Z,58.83
2019-01-19T23:24:21.312Z,48.87
2019-01-19T23:26:55.838Z,52.57
2019-01-19T23:29:26.171Z,52.90
2019-01-19T23:31:56.243Z,52.47
2019-01-19T23:34:26.247Z,50.40
2019-01-19T23:36:56.246Z,54.33
2019-01-19T23:39:26.199Z,59.27
2019-01-19T23:41:56.299Z,47.73
2019-01-19T23:44:26.304Z,52.97
2019-01-19T23:46:56.237Z,55.27
2019-01-19T23:49:26.451Z,59.90
2019-01-19T23:51:56.382Z,54.00
2019-01-19T23:54:26.379Z,51.77
2019-01-19T23:56:56.315Z,53.17
2019-01-19T23:59:27.180Z,49.60
